sensor_id;sensor_type;location;lat;lon;timestamp;temperature;humidity
23731;DHT22;12046;44.702;10.622;2023-01-28T00:01:04;3.80;99.90
23731;DHT22;12046;44.702;10.622;2023-01-28T00:03:30;3.90;99.90
23731;DHT22;12046;44.702;10.622;2023-01-28T00:06:00;3.90;99.90
23731;DHT22;12046;44.702;10.622;2023-01-28T00:08:26;3.90;99.90
23731;DHT22;12046;44.702;10.622;2023-01-28T00:10:51;3.90;99.90
23731;DHT22;12046;44.702;10.622;2023-01-28T00:13:17;3.90;99.90
23731;DHT22;12046;44.702;10.622;2023-01-28T00:15:43;4.00;99.90
23731;DHT22;12046;44.702;10.622;2023-01-28T00:18:08;3.90;99.90
23731;DHT22;12046;44.702;10.622;2023-01-28T00:20:34;3.90;99.90
23731;DHT22;12046;44.702;10.622;2023-01-28T00:23:00;3.90;99.90
23731;DHT22;12046;44.702;10.622;2023-01-28T00:25:25;3.80;99.90
23731;DHT22;12046;44.702;10.622;2023-01-28T00:27:51;3.80;99.90
23731;DHT22;12046;44.702;10.622;2023-01-28T00:30:17;3.90;99.90
23731;DHT22;12046;44.702;10.622;2023-01-28T00:32:43;3.90;99.90
23731;DHT22;12046;44.702;10.622;2023-01-28T00:35:09;4.00;99.90
23731;DHT22;12046;44.702;10.622;2023-01-28T00:37:35;4.10;99.90
23731;DHT22;12046;44.702;10.622;2023-01-28T00:40:02;4.20;99.90
23731;DHT22;12046;44.702;10.622;2023-01-28T00:42:27;4.30;99.90
23731;DHT22;12046;44.702;10.622;2023-01-28T00:44:53;4.40;99.90
23731;DHT22;12046;44.702;10.622;2023-01-28T00:47:18;4.50;99.90
23731;DHT22;12046;44.702;10.622;2023-01-28T00:49:45;4.40;99.90
23731;DHT22;12046;44.702;10.622;2023-01-28T00:52:11;4.40;99.90
23731;DHT22;12046;44.702;10.622;2023-01-28T00:54:37;4.50;99.90
23731;DHT22;12046;44.702;10.622;2023-01-28T00:57:02;4.50;99.90
23731;DHT22;12046;44.702;10.622;2023-01-28T00:59:28;4.40;99.90
23731;DHT22;12046;44.702;10.622;2023-01-28T01:01:54;4.40;99.90
23731;DHT22;12046;44.702;10.622;2023-01-28T01:04:37;4.40;99.90
23731;DHT22;12046;44.702;10.622;2023-01-28T01:07:02;4.30;99.90
23731;DHT22;12046;44.702;10.622;2023-01-28T01:09:28;4.30;99.90
23731;DHT22;12046;44.702;10.622;2023-01-28T01:11:54;4.20;99.90
23731;DHT22;12046;44.702;10.622;2023-01-28T01:14:19;4.20;99.90
23731;DHT22;12046;44.702;10.622;2023-01-28T01:16:45;4.10;99.90
23731;DHT22;12046;44.702;10.622;2023-01-28T01:19:11;4.00;99.90
23731;DHT22;12046;44.702;10.622;2023-01-28T01:21:36;4.00;99.90
23731;DHT22;12046;44.702;10.622;2023-01-28T01:24:02;3.90;99.90
23731;DHT22;12046;44.702;10.622;2023-01-28T01:26:28;3.90;99.90
23731;DHT22;12046;44.702;10.622;2023-01-28T01:28:54;3.80;99.90
23731;DHT22;12046;44.702;10.622;2023-01-28T01:31:20;3.80;99.90
23731;DHT22;12046;44.702;10.622;2023-01-28T01:33:47;3.70;99.90
23731;DHT22;12046;44.702;10.622;2023-01-28T01:36:15;3.80;99.90
23731;DHT22;12046;44.702;10.622;2023-01-28T01:38:41;3.90;99.90
23731;DHT22;12046;44.702;10.622;2023-01-28T01:41:19;3.90;99.90
23731;DHT22;12046;44.702;10.622;2023-01-28T01:43:50;4.00;99.90
23731;DHT22;12046;44.702;10.622;2023-01-28T01:46:18;4.10;99.90
23731;DHT22;12046;44.702;10.622;2023-01-28T01:48:45;4.20;99.90
23731;DHT22;12046;44.702;10.622;2023-01-28T01:51:18;4.20;99.90
23731;DHT22;12046;44.702;10.622;2023-01-28T01:53:47;4.20;99.90
23731;DHT22;12046;44.702;10.622;2023-01-28T01:56:14;4.20;99.90
23731;DHT22;12046;44.702;10.622;2023-01-28T01:58:41;4.30;99.90
23731;DHT22;12046;44.702;10.622;2023-01-28T02:01:08;4.30;99.90
23731;DHT22;12046;44.702;10.622;2023-01-28T02:03:42;4.30;99.90
23731;DHT22;12046;44.702;10.622;2023-01-28T02:06:11;4.40;99.90
23731;DHT22;12046;44.702;10.622;2023-01-28T02:08:37;4.40;99.90
23731;DHT22;12046;44.702;10.622;2023-01-28T02:11:06;4.40;99.90
23731;DHT22;12046;44.702;10.622;2023-01-28T02:13:46;4.40;99.90
23731;DHT22;12046;44.702;10.622;2023-01-28T02:16:14;4.50;99.90
23731;DHT22;12046;44.702;10.622;2023-01-28T02:18:39;4.50;99.90
23731;DHT22;12046;44.702;10.622;2023-01-28T02:34:41;4.60;99.90
23731;DHT22;12046;44.702;10.622;2023-01-28T02:37:10;4.60;99.90
23731;DHT22;12046;44.702;10.622;2023-01-28T02:39:39;4.50;99.90
23731;DHT22;12046;44.702;10.622;2023-01-28T02:42:10;4.50;99.90
23731;DHT22;12046;44.702;10.622;2023-01-28T02:44:38;4.50;99.90
23731;DHT22;12046;44.702;10.622;2023-01-28T02:47:10;4.50;99.90
23731;DHT22;12046;44.702;10.622;2023-01-28T02:49:55;4.50;99.90
23731;DHT22;12046;44.702;10.622;2023-01-28T02:57:45;4.40;99.90
23731;DHT22;12046;44.702;10.622;2023-01-28T03:07:49;4.30;99.90
23731;DHT22;12046;44.702;10.622;2023-01-28T03:10:17;4.30;99.90
23731;DHT22;12046;44.702;10.622;2023-01-28T03:12:46;4.20;99.90
23731;DHT22;12046;44.702;10.622;2023-01-28T03:15:33;4.20;99.90
23731;DHT22;12046;44.702;10.622;2023-01-28T03:18:24;4.00;99.90
23731;DHT22;12046;44.702;10.622;2023-01-28T03:21:14;4.00;99.90
23731;DHT22;12046;44.702;10.622;2023-01-28T03:24:04;4.00;99.90
23731;DHT22;12046;44.702;10.622;2023-01-28T03:27:02;4.00;99.90
23731;DHT22;12046;44.702;10.622;2023-01-28T03:29:48;4.00;99.90
23731;DHT22;12046;44.702;10.622;2023-01-28T03:32:34;3.90;99.90
23731;DHT22;12046;44.702;10.622;2023-01-28T03:35:18;3.90;99.90
23731;DHT22;12046;44.702;10.622;2023-01-28T03:38:05;3.80;99.90
23731;DHT22;12046;44.702;10.622;2023-01-28T03:40:55;3.80;99.90
23731;DHT22;12046;44.702;10.622;2023-01-28T03:43:21;3.90;99.90
23731;DHT22;12046;44.702;10.622;2023-01-28T03:45:47;3.90;99.90
23731;DHT22;12046;44.702;10.622;2023-01-28T03:48:18;3.80;99.90
23731;DHT22;12046;44.702;10.622;2023-01-28T03:50:44;3.70;99.90
23731;DHT22;12046;44.702;10.622;2023-01-28T03:53:10;3.70;99.90
23731;DHT22;12046;44.702;10.622;2023-01-28T03:55:43;3.60;99.90
23731;DHT22;12046;44.702;10.622;2023-01-28T03:58:09;3.20;99.90
23731;DHT22;12046;44.702;10.622;2023-01-28T04:00:35;3.00;99.90
23731;DHT22;12046;44.702;10.622;2023-01-28T04:03:17;3.10;99.90
23731;DHT22;12046;44.702;10.622;2023-01-28T04:08:09;2.90;99.90
23731;DHT22;12046;44.702;10.622;2023-01-28T04:10:37;2.90;99.90
23731;DHT22;12046;44.702;10.622;2023-01-28T04:13:03;3.00;99.90
23731;DHT22;12046;44.702;10.622;2023-01-28T04:15:28;2.90;99.90
23731;DHT22;12046;44.702;10.622;2023-01-28T04:17:55;3.00;99.90
23731;DHT22;12046;44.702;10.622;2023-01-28T04:20:21;3.10;99.90
23731;DHT22;12046;44.702;10.622;2023-01-28T04:22:46;3.20;99.90
23731;DHT22;12046;44.702;10.622;2023-01-28T04:25:12;3.20;99.90
23731;DHT22;12046;44.702;10.622;2023-01-28T04:27:38;3.30;99.90
23731;DHT22;12046;44.702;10.622;2023-01-28T04:30:03;3.20;99.90
23731;DHT22;12046;44.702;10.622;2023-01-28T04:32:29;3.00;99.90
23731;DHT22;12046;44.702;10.622;2023-01-28T04:34:55;2.80;99.90
23731;DHT22;12046;44.702;10.622;2023-01-28T04:37:20;2.90;99.90
23731;DHT22;12046;44.702;10.622;2023-01-28T04:39:46;3.10;99.90
23731;DHT22;12046;44.702;10.622;2023-01-28T04:42:11;3.10;99.90
23731;DHT22;12046;44.702;10.622;2023-01-28T04:44:37;3.20;99.90
23731;DHT22;12046;44.702;10.622;2023-01-28T04:47:03;3.20;99.90
23731;DHT22;12046;44.702;10.622;2023-01-28T04:49:28;3.30;99.90
23731;DHT22;12046;44.702;10.622;2023-01-28T04:51:54;3.30;99.90
23731;DHT22;12046;44.702;10.622;2023-01-28T04:54:20;3.30;99.90
23731;DHT22;12046;44.702;10.622;2023-01-28T04:56:45;3.30;99.90
23731;DHT22;12046;44.702;10.622;2023-01-28T04:59:11;3.30;99.90
23731;DHT22;12046;44.702;10.622;2023-01-28T05:01:36;3.30;99.90
23731;DHT22;12046;44.702;10.622;2023-01-28T05:04:02;3.20;99.90
23731;DHT22;12046;44.702;10.622;2023-01-28T05:06:33;3.10;99.90
23731;DHT22;12046;44.702;10.622;2023-01-28T05:08:58;3.20;99.90
23731;DHT22;12046;44.702;10.622;2023-01-28T05:11:24;3.10;99.90
23731;DHT22;12046;44.702;10.622;2023-01-28T05:13:50;3.10;99.90
23731;DHT22;12046;44.702;10.622;2023-01-28T05:16:15;3.10;99.90
23731;DHT22;12046;44.702;10.622;2023-01-28T05:18:41;3.20;99.90
23731;DHT22;12046;44.702;10.622;2023-01-28T05:21:07;3.20;99.90
23731;DHT22;12046;44.702;10.622;2023-01-28T05:23:33;3.20;99.90
23731;DHT22;12046;44.702;10.622;2023-01-28T05:25:59;3.20;99.90
23731;DHT22;12046;44.702;10.622;2023-01-28T05:28:25;3.20;99.90
23731;DHT22;12046;44.702;10.622;2023-01-28T05:30:50;3.20;99.90
23731;DHT22;12046;44.702;10.622;2023-01-28T05:33:16;3.30;99.90
23731;DHT22;12046;44.702;10.622;2023-01-28T05:35:42;3.30;99.90
23731;DHT22;12046;44.702;10.622;2023-01-28T05:38:07;3.20;99.90
23731;DHT22;12046;44.702;10.622;2023-01-28T05:40:33;3.20;99.90
23731;DHT22;12046;44.702;10.622;2023-01-28T05:42:59;3.30;99.90
23731;DHT22;12046;44.702;10.622;2023-01-28T05:45:24;3.20;99.90
23731;DHT22;12046;44.702;10.622;2023-01-28T05:47:50;3.30;99.90
23731;DHT22;12046;44.702;10.622;2023-01-28T05:50:16;3.30;99.90
23731;DHT22;12046;44.702;10.622;2023-01-28T05:52:42;3.30;99.90
23731;DHT22;12046;44.702;10.622;2023-01-28T05:55:07;3.30;99.90
23731;DHT22;12046;44.702;10.622;2023-01-28T05:57:33;3.30;99.90
23731;DHT22;12046;44.702;10.622;2023-01-28T05:59:59;3.30;99.90
23731;DHT22;12046;44.702;10.622;2023-01-28T06:02:24;3.30;99.90
23731;DHT22;12046;44.702;10.622;2023-01-28T06:04:50;3.30;99.90
23731;DHT22;12046;44.702;10.622;2023-01-28T06:07:15;3.30;99.90
23731;DHT22;12046;44.702;10.622;2023-01-28T06:09:45;3.30;99.90
23731;DHT22;12046;44.702;10.622;2023-01-28T06:12:10;3.30;99.90
23731;DHT22;12046;44.702;10.622;2023-01-28T06:14:36;3.30;99.90
23731;DHT22;12046;44.702;10.622;2023-01-28T06:17:02;3.30;99.90
23731;DHT22;12046;44.702;10.622;2023-01-28T06:19:27;3.30;99.90
23731;DHT22;12046;44.702;10.622;2023-01-28T06:21:53;3.20;99.90
23731;DHT22;12046;44.702;10.622;2023-01-28T06:24:18;3.30;99.90
23731;DHT22;12046;44.702;10.622;2023-01-28T06:26:47;3.30;99.90
23731;DHT22;12046;44.702;10.622;2023-01-28T06:29:12;3.30;99.90
23731;DHT22;12046;44.702;10.622;2023-01-28T06:31:38;3.30;99.90
23731;DHT22;12046;44.702;10.622;2023-01-28T06:34:04;3.30;99.90
23731;DHT22;12046;44.702;10.622;2023-01-28T06:36:29;3.30;99.90
23731;DHT22;12046;44.702;10.622;2023-01-28T06:38:55;3.30;99.90
23731;DHT22;12046;44.702;10.622;2023-01-28T06:41:21;3.30;99.90
23731;DHT22;12046;44.702;10.622;2023-01-28T06:43:47;3.40;99.90
23731;DHT22;12046;44.702;10.622;2023-01-28T06:46:13;3.30;99.90
23731;DHT22;12046;44.702;10.622;2023-01-28T06:48:38;3.30;99.90
23731;DHT22;12046;44.702;10.622;2023-01-28T06:51:04;3.20;99.90
23731;DHT22;12046;44.702;10.622;2023-01-28T06:53:30;3.20;99.90
23731;DHT22;12046;44.702;10.622;2023-01-28T06:55:56;3.20;99.90
23731;DHT22;12046;44.702;10.622;2023-01-28T06:58:21;3.20;99.90
23731;DHT22;12046;44.702;10.622;2023-01-28T07:00:47;3.20;99.90
23731;DHT22;12046;44.702;10.622;2023-01-28T07:03:12;3.20;99.90
23731;DHT22;12046;44.702;10.622;2023-01-28T07:05:38;3.20;99.90
23731;DHT22;12046;44.702;10.622;2023-01-28T07:08:04;3.20;99.90
23731;DHT22;12046;44.702;10.622;2023-01-28T07:10:29;3.20;99.90
23731;DHT22;12046;44.702;10.622;2023-01-28T07:12:55;3.20;99.90
23731;DHT22;12046;44.702;10.622;2023-01-28T07:15:21;3.20;99.90
23731;DHT22;12046;44.702;10.622;2023-01-28T07:17:46;3.20;99.90
23731;DHT22;12046;44.702;10.622;2023-01-28T07:20:13;3.20;99.90
23731;DHT22;12046;44.702;10.622;2023-01-28T07:22:40;3.20;99.90
23731;DHT22;12046;44.702;10.622;2023-01-28T07:25:06;3.20;99.90
23731;DHT22;12046;44.702;10.622;2023-01-28T07:27:32;3.20;99.90
23731;DHT22;12046;44.702;10.622;2023-01-28T07:29:58;3.20;99.90
23731;DHT22;12046;44.702;10.622;2023-01-28T07:32:23;3.20;99.90
23731;DHT22;12046;44.702;10.622;2023-01-28T07:34:52;3.20;99.90
23731;DHT22;12046;44.702;10.622;2023-01-28T07:37:18;3.10;99.90
23731;DHT22;12046;44.702;10.622;2023-01-28T07:39:43;3.00;99.90
23731;DHT22;12046;44.702;10.622;2023-01-28T07:42:09;2.90;99.90
23731;DHT22;12046;44.702;10.622;2023-01-28T07:44:35;3.00;99.90
23731;DHT22;12046;44.702;10.622;2023-01-28T07:47:02;3.00;99.90
23731;DHT22;12046;44.702;10.622;2023-01-28T07:49:27;3.10;99.90
23731;DHT22;12046;44.702;10.622;2023-01-28T07:51:53;3.00;99.90
23731;DHT22;12046;44.702;10.622;2023-01-28T07:54:19;3.10;99.90
23731;DHT22;12046;44.702;10.622;2023-01-28T07:56:44;3.20;99.90
23731;DHT22;12046;44.702;10.622;2023-01-28T08:35:22;5.20;99.90
23731;DHT22;12046;44.702;10.622;2023-01-28T08:37:48;5.20;99.90
23731;DHT22;12046;44.702;10.622;2023-01-28T08:40:14;5.30;99.90
23731;DHT22;12046;44.702;10.622;2023-01-28T08:42:46;5.40;99.90
23731;DHT22;12046;44.702;10.622;2023-01-28T08:45:13;5.50;99.90
23731;DHT22;12046;44.702;10.622;2023-01-28T08:48:14;5.70;99.90
23731;DHT22;12046;44.702;10.622;2023-01-28T08:50:40;5.70;99.90
23731;DHT22;12046;44.702;10.622;2023-01-28T08:53:12;5.60;99.90
23731;DHT22;12046;44.702;10.622;2023-01-28T08:55:38;5.50;99.90
23731;DHT22;12046;44.702;10.622;2023-01-28T08:58:06;5.40;99.90
23731;DHT22;12046;44.702;10.622;2023-01-28T09:00:33;5.30;99.90
23731;DHT22;12046;44.702;10.622;2023-01-28T09:03:17;5.20;99.90
23731;DHT22;12046;44.702;10.622;2023-01-28T09:05:43;5.20;99.90
23731;DHT22;12046;44.702;10.622;2023-01-28T09:08:12;5.10;99.90
23731;DHT22;12046;44.702;10.622;2023-01-28T09:10:38;5.00;99.90
23731;DHT22;12046;44.702;10.622;2023-01-28T09:13:08;5.00;99.90
23731;DHT22;12046;44.702;10.622;2023-01-28T09:15:34;5.20;99.90
23731;DHT22;12046;44.702;10.622;2023-01-28T09:18:00;5.60;99.90
23731;DHT22;12046;44.702;10.622;2023-01-28T09:20:26;5.90;99.90
23731;DHT22;12046;44.702;10.622;2023-01-28T09:22:54;6.10;99.90
23731;DHT22;12046;44.702;10.622;2023-01-28T09:25:21;6.10;99.90
23731;DHT22;12046;44.702;10.622;2023-01-28T09:27:46;6.50;99.90
23731;DHT22;12046;44.702;10.622;2023-01-28T09:30:13;6.20;99.90
23731;DHT22;12046;44.702;10.622;2023-01-28T09:32:38;6.30;99.90
23731;DHT22;12046;44.702;10.622;2023-01-28T09:35:05;6.70;99.90
23731;DHT22;12046;44.702;10.622;2023-01-28T09:37:31;7.10;99.90
23731;DHT22;12046;44.702;10.622;2023-01-28T09:39:57;7.70;99.90
23731;DHT22;12046;44.702;10.622;2023-01-28T09:45:31;8.90;99.90
23731;DHT22;12046;44.702;10.622;2023-01-28T09:48:04;9.50;99.90
23731;DHT22;12046;44.702;10.622;2023-01-28T09:50:36;10.40;99.90
23731;DHT22;12046;44.702;10.622;2023-01-28T09:53:29;11.30;99.00
23731;DHT22;12046;44.702;10.622;2023-01-28T09:56:42;13.00;96.50
23731;DHT22;12046;44.702;10.622;2023-01-28T09:58:50;15.20;92.90
23731;DHT22;12046;44.702;10.622;2023-01-28T10:01:43;17.00;90.30
23731;DHT22;12046;44.702;10.622;2023-01-28T10:12:04;18.10;82.90
23731;DHT22;12046;44.702;10.622;2023-01-28T10:22:34;20.90;70.90
23731;DHT22;12046;44.702;10.622;2023-01-28T10:25:06;21.60;69.10
23731;DHT22;12046;44.702;10.622;2023-01-28T10:27:38;22.60;66.30
23731;DHT22;12046;44.702;10.622;2023-01-28T10:30:30;23.20;63.60
23731;DHT22;12046;44.702;10.622;2023-01-28T10:33:18;23.60;61.60
23731;DHT22;12046;44.702;10.622;2023-01-28T10:35:45;24.00;59.70
23731;DHT22;12046;44.702;10.622;2023-01-28T12:27:24;22.80;49.30
23731;DHT22;12046;44.702;10.622;2023-01-28T12:32:48;25.90;46.50
23731;DHT22;12046;44.702;10.622;2023-01-28T12:35:28;27.00;45.50
23731;DHT22;12046;44.702;10.622;2023-01-28T12:46:04;28.80;43.90
23731;DHT22;12046;44.702;10.622;2023-01-28T12:49:09;29.30;43.80
23731;DHT22;12046;44.702;10.622;2023-01-28T12:51:48;27.10;43.50
23731;DHT22;12046;44.702;10.622;2023-01-28T12:54:58;24.30;46.20
23731;DHT22;12046;44.702;10.622;2023-01-28T12:57:28;22.10;48.00
23731;DHT22;12046;44.702;10.622;2023-01-28T13:00:33;21.80;48.60
23731;DHT22;12046;44.702;10.622;2023-01-28T13:03:19;23.40;46.90
23731;DHT22;12046;44.702;10.622;2023-01-28T13:05:58;25.30;45.20
23731;DHT22;12046;44.702;10.622;2023-01-28T13:08:27;26.60;44.50
23731;DHT22;12046;44.702;10.622;2023-01-28T13:10:54;27.30;44.50
23731;DHT22;12046;44.702;10.622;2023-01-28T13:13:38;28.40;43.30
23731;DHT22;12046;44.702;10.622;2023-01-28T13:16:08;29.00;41.80
23731;DHT22;12046;44.702;10.622;2023-01-28T13:21:28;28.80;41.00
23731;DHT22;12046;44.702;10.622;2023-01-28T13:31:55;27.30;39.70
23731;DHT22;12046;44.702;10.622;2023-01-28T13:34:41;26.50;40.80
23731;DHT22;12046;44.702;10.622;2023-01-28T13:37:37;24.80;41.80
23731;DHT22;12046;44.702;10.622;2023-01-28T13:40:27;24.30;42.60
23731;DHT22;12046;44.702;10.622;2023-01-28T13:43:05;24.00;43.40
23731;DHT22;12046;44.702;10.622;2023-01-28T14:12:12;12.10;59.70
23731;DHT22;12046;44.702;10.622;2023-01-28T14:19:51;10.10;65.70
23731;DHT22;12046;44.702;10.622;2023-01-28T14:22:19;10.20;65.70
23731;DHT22;12046;44.702;10.622;2023-01-28T14:24:46;10.30;65.70
23731;DHT22;12046;44.702;10.622;2023-01-28T14:27:26;10.50;66.00
23731;DHT22;12046;44.702;10.622;2023-01-28T14:32:51;10.50;66.90
23731;DHT22;12046;44.702;10.622;2023-01-28T14:35:29;10.70;66.40
23731;DHT22;12046;44.702;10.622;2023-01-28T14:37:56;10.70;66.70
23731;DHT22;12046;44.702;10.622;2023-01-28T14:40:23;10.70;67.10
23731;DHT22;12046;44.702;10.622;2023-01-28T14:42:52;10.70;67.40
23731;DHT22;12046;44.702;10.622;2023-01-28T14:45:44;10.70;67.90
23731;DHT22;12046;44.702;10.622;2023-01-28T14:48:35;10.70;68.00
23731;DHT22;12046;44.702;10.622;2023-01-28T14:51:22;10.60;67.90
23731;DHT22;12046;44.702;10.622;2023-01-28T14:54:20;10.50;69.00
23731;DHT22;12046;44.702;10.622;2023-01-28T15:04:48;10.40;68.80
23731;DHT22;12046;44.702;10.622;2023-01-28T15:09:41;10.20;68.70
23731;DHT22;12046;44.702;10.622;2023-01-28T15:12:08;9.90;69.30
23731;DHT22;12046;44.702;10.622;2023-01-28T15:14:34;9.60;70.10
23731;DHT22;12046;44.702;10.622;2023-01-28T15:17:00;9.40;71.10
23731;DHT22;12046;44.702;10.622;2023-01-28T15:19:32;9.30;72.40
23731;DHT22;12046;44.702;10.622;2023-01-28T15:22:04;9.30;72.00
23731;DHT22;12046;44.702;10.622;2023-01-28T15:24:33;9.30;71.80
23731;DHT22;12046;44.702;10.622;2023-01-28T15:27:00;9.30;72.30
23731;DHT22;12046;44.702;10.622;2023-01-28T15:29:34;9.20;72.70
23731;DHT22;12046;44.702;10.622;2023-01-28T15:32:04;9.20;73.10
23731;DHT22;12046;44.702;10.622;2023-01-28T15:34:31;9.20;73.20
23731;DHT22;12046;44.702;10.622;2023-01-28T15:36:58;9.20;73.10
23731;DHT22;12046;44.702;10.622;2023-01-28T15:39:26;9.20;73.50
23731;DHT22;12046;44.702;10.622;2023-01-28T15:42:04;9.10;74.20
23731;DHT22;12046;44.702;10.622;2023-01-28T15:44:42;8.90;74.50
23731;DHT22;12046;44.702;10.622;2023-01-28T15:47:45;8.70;75.30
23731;DHT22;12046;44.702;10.622;2023-01-28T15:50:19;8.60;75.80
23731;DHT22;12046;44.702;10.622;2023-01-28T15:52:50;8.60;75.80
23731;DHT22;12046;44.702;10.622;2023-01-28T16:22:07;7.50;80.00
23731;DHT22;12046;44.702;10.622;2023-01-28T16:24:34;7.30;80.50
23731;DHT22;12046;44.702;10.622;2023-01-28T16:29:36;7.20;82.20
23731;DHT22;12046;44.702;10.622;2023-01-28T16:32:28;7.10;83.30
23731;DHT22;12046;44.702;10.622;2023-01-28T16:35:20;7.10;83.80
23731;DHT22;12046;44.702;10.622;2023-01-28T17:05:59;7.40;85.60
23731;DHT22;12046;44.702;10.622;2023-01-28T17:08:24;7.10;86.40
23731;DHT22;12046;44.702;10.622;2023-01-28T17:10:54;7.00;87.20
23731;DHT22;12046;44.702;10.622;2023-01-28T17:13:23;6.90;87.80
23731;DHT22;12046;44.702;10.622;2023-01-28T17:15:49;6.80;88.70
23731;DHT22;12046;44.702;10.622;2023-01-28T17:18:15;6.70;89.20
23731;DHT22;12046;44.702;10.622;2023-01-28T17:20:40;6.70;89.70
23731;DHT22;12046;44.702;10.622;2023-01-28T17:23:07;6.60;90.20
23731;DHT22;12046;44.702;10.622;2023-01-28T17:25:37;6.60;90.30
23731;DHT22;12046;44.702;10.622;2023-01-28T17:28:07;6.50;90.50
23731;DHT22;12046;44.702;10.622;2023-01-28T17:30:34;6.40;90.80
23731;DHT22;12046;44.702;10.622;2023-01-28T17:33:02;6.40;91.00
23731;DHT22;12046;44.702;10.622;2023-01-28T17:35:29;6.40;91.20
23731;DHT22;12046;44.702;10.622;2023-01-28T17:37:58;6.40;91.50
23731;DHT22;12046;44.702;10.622;2023-01-28T17:43:54;6.30;91.70
23731;DHT22;12046;44.702;10.622;2023-01-28T17:46:22;6.20;91.90
23731;DHT22;12046;44.702;10.622;2023-01-28T17:48:48;6.10;92.30
23731;DHT22;12046;44.702;10.622;2023-01-28T17:51:15;6.10;92.60
23731;DHT22;12046;44.702;10.622;2023-01-28T17:53:51;6.00;92.70
23731;DHT22;12046;44.702;10.622;2023-01-28T18:02:43;6.20;93.10
23731;DHT22;12046;44.702;10.622;2023-01-28T18:06:04;6.10;93.00
23731;DHT22;12046;44.702;10.622;2023-01-28T18:08:51;5.90;93.20
23731;DHT22;12046;44.702;10.622;2023-01-28T18:11:18;5.80;93.60
23731;DHT22;12046;44.702;10.622;2023-01-28T18:13:44;5.80;93.80
23731;DHT22;12046;44.702;10.622;2023-01-28T18:16:20;5.60;93.90
23731;DHT22;12046;44.702;10.622;2023-01-28T18:19:14;5.60;94.40
23731;DHT22;12046;44.702;10.622;2023-01-28T18:43:03;5.40;95.70
23731;DHT22;12046;44.702;10.622;2023-01-28T18:52:32;5.00;96.60
23731;DHT22;12046;44.702;10.622;2023-01-28T18:55:04;5.00;96.70
23731;DHT22;12046;44.702;10.622;2023-01-28T18:57:30;5.00;97.10
23731;DHT22;12046;44.702;10.622;2023-01-28T18:59:56;5.00;97.10
23731;DHT22;12046;44.702;10.622;2023-01-28T19:02:22;5.00;97.30
23731;DHT22;12046;44.702;10.622;2023-01-28T19:04:47;4.90;97.50
23731;DHT22;12046;44.702;10.622;2023-01-28T19:07:13;4.80;97.70
23731;DHT22;12046;44.702;10.622;2023-01-28T19:09:39;4.80;98.00
23731;DHT22;12046;44.702;10.622;2023-01-28T19:12:05;4.80;98.40
23731;DHT22;12046;44.702;10.622;2023-01-28T19:14:31;4.80;98.40
23731;DHT22;12046;44.702;10.622;2023-01-28T19:16:56;4.90;98.40
23731;DHT22;12046;44.702;10.622;2023-01-28T19:19:22;4.90;98.10
23731;DHT22;12046;44.702;10.622;2023-01-28T19:21:48;4.90;98.20
23731;DHT22;12046;44.702;10.622;2023-01-28T19:24:14;4.80;98.40
23731;DHT22;12046;44.702;10.622;2023-01-28T19:26:41;4.70;98.50
23731;DHT22;12046;44.702;10.622;2023-01-28T19:29:08;4.70;98.60
23731;DHT22;12046;44.702;10.622;2023-01-28T19:31:40;4.60;99.00
23731;DHT22;12046;44.702;10.622;2023-01-28T19:34:06;4.50;99.10
23731;DHT22;12046;44.702;10.622;2023-01-28T19:36:33;4.40;99.30
23731;DHT22;12046;44.702;10.622;2023-01-28T19:39:05;4.30;99.80
23731;DHT22;12046;44.702;10.622;2023-01-28T19:41:53;4.10;99.90
23731;DHT22;12046;44.702;10.622;2023-01-28T19:44:44;4.10;99.90
23731;DHT22;12046;44.702;10.622;2023-01-28T19:47:10;4.00;99.90
23731;DHT22;12046;44.702;10.622;2023-01-28T19:49:36;4.10;99.90
23731;DHT22;12046;44.702;10.622;2023-01-28T19:52:01;4.20;99.90
23731;DHT22;12046;44.702;10.622;2023-01-28T19:54:27;4.10;99.90
23731;DHT22;12046;44.702;10.622;2023-01-28T19:56:53;4.10;99.90
23731;DHT22;12046;44.702;10.622;2023-01-28T19:59:19;3.90;99.90
23731;DHT22;12046;44.702;10.622;2023-01-28T20:01:45;3.90;99.90
23731;DHT22;12046;44.702;10.622;2023-01-28T20:04:11;3.90;99.90
23731;DHT22;12046;44.702;10.622;2023-01-28T20:06:39;4.00;99.90
23731;DHT22;12046;44.702;10.622;2023-01-28T20:09:11;3.90;99.90
23731;DHT22;12046;44.702;10.622;2023-01-28T20:11:38;3.70;99.90
23731;DHT22;12046;44.702;10.622;2023-01-28T20:14:04;3.70;99.90
23731;DHT22;12046;44.702;10.622;2023-01-28T20:16:32;3.80;99.90
23731;DHT22;12046;44.702;10.622;2023-01-28T20:19:01;3.80;99.90
23731;DHT22;12046;44.702;10.622;2023-01-28T20:21:30;3.80;99.90
23731;DHT22;12046;44.702;10.622;2023-01-28T20:24:00;3.80;99.90
23731;DHT22;12046;44.702;10.622;2023-01-28T20:26:31;3.80;99.90
23731;DHT22;12046;44.702;10.622;2023-01-28T20:29:11;3.80;99.90
23731;DHT22;12046;44.702;10.622;2023-01-28T20:31:40;3.90;99.90
23731;DHT22;12046;44.702;10.622;2023-01-28T20:34:06;3.90;99.90
23731;DHT22;12046;44.702;10.622;2023-01-28T20:36:36;3.70;99.90
23731;DHT22;12046;44.702;10.622;2023-01-28T20:39:05;3.70;99.90
23731;DHT22;12046;44.702;10.622;2023-01-28T20:41:31;3.50;99.90
23731;DHT22;12046;44.702;10.622;2023-01-28T20:51:42;3.40;99.90
23731;DHT22;12046;44.702;10.622;2023-01-28T20:54:34;3.40;99.90
23731;DHT22;12046;44.702;10.622;2023-01-28T21:00:41;3.40;99.90
23731;DHT22;12046;44.702;10.622;2023-01-28T21:06:51;3.60;99.90
23731;DHT22;12046;44.702;10.622;2023-01-28T21:09:17;3.70;99.90
23731;DHT22;12046;44.702;10.622;2023-01-28T21:11:43;3.70;99.90
23731;DHT22;12046;44.702;10.622;2023-01-28T21:14:08;3.80;99.90
23731;DHT22;12046;44.702;10.622;2023-01-28T21:16:36;3.80;99.90
23731;DHT22;12046;44.702;10.622;2023-01-28T21:19:07;3.90;99.90
23731;DHT22;12046;44.702;10.622;2023-01-28T21:21:32;3.90;99.90
23731;DHT22;12046;44.702;10.622;2023-01-28T21:23:59;3.90;99.90
23731;DHT22;12046;44.702;10.622;2023-01-28T21:26:25;3.90;99.90
23731;DHT22;12046;44.702;10.622;2023-01-28T21:28:51;3.90;99.90
23731;DHT22;12046;44.702;10.622;2023-01-28T21:31:22;4.00;99.90
23731;DHT22;12046;44.702;10.622;2023-01-28T21:33:49;4.00;99.90
23731;DHT22;12046;44.702;10.622;2023-01-28T21:36:15;4.00;99.90
23731;DHT22;12046;44.702;10.622;2023-01-28T21:38:42;4.00;99.90
23731;DHT22;12046;44.702;10.622;2023-01-28T21:41:08;4.00;99.90
23731;DHT22;12046;44.702;10.622;2023-01-28T21:43:34;4.00;99.90
23731;DHT22;12046;44.702;10.622;2023-01-28T21:46:01;4.00;99.90
23731;DHT22;12046;44.702;10.622;2023-01-28T21:48:27;3.90;99.90
23731;DHT22;12046;44.702;10.622;2023-01-28T21:50:53;3.90;99.90
23731;DHT22;12046;44.702;10.622;2023-01-28T21:53:38;3.90;99.90
23731;DHT22;12046;44.702;10.622;2023-01-28T21:56:06;3.90;99.90
23731;DHT22;12046;44.702;10.622;2023-01-28T21:58:36;3.90;99.90